createdAt,value
2022-11-13T00:01:26.471Z,16.38
2022-11-13T00:04:30.383Z,14.05
2022-11-13T00:07:34.455Z,15.95
2022-11-13T00:10:38.824Z,12.52
2022-11-13T00:13:43.227Z,12.23
2022-11-13T00:16:47.462Z,13.68
2022-11-13T00:19:51.758Z,13.38
2022-11-13T00:22:56.055Z,13.05
2022-11-13T00:26:07.883Z,13.30
2022-11-13T00:29:11.832Z,14.90
2022-11-13T00:32:16.111Z,14.07
2022-11-13T00:35:20.451Z,13.43
2022-11-13T00:38:25.157Z,14.95
2022-11-13T00:41:30.090Z,14.60
2022-11-13T00:44:34.297Z,12.60
2022-11-13T00:47:38.626Z,13.85
2022-11-13T00:50:42.973Z,12.20
2022-11-13T00:53:47.599Z,13.48
2022-11-13T00:56:51.927Z,15.43
2022-11-13T00:59:56.288Z,13.80
2022-11-13T01:03:01.233Z,13.93
2022-11-13T01:06:19.606Z,15.02
2022-11-13T01:09:24.286Z,13.73
2022-11-13T01:12:28.733Z,13.00
2022-11-13T01:15:32.964Z,13.52
2022-11-13T01:18:37.431Z,14.27
2022-11-13T01:21:41.578Z,15.23
2022-11-13T01:24:46.091Z,14.10
2022-11-13T01:27:50.425Z,14.00
2022-11-13T01:30:54.792Z,12.27
2022-11-13T01:33:59.542Z,12.48
2022-11-13T01:37:03.847Z,11.50
2022-11-13T01:40:10.410Z,13.00
2022-11-13T01:43:28.620Z,12.40
2022-11-13T01:46:40.575Z,11.90
2022-11-13T01:49:46.199Z,12.77
2022-11-13T01:52:50.626Z,13.75
2022-11-13T01:55:55.123Z,13.27
2022-11-13T01:59:06.856Z,12.07
2022-11-13T02:02:11.513Z,12.90
2022-11-13T02:05:15.634Z,11.02
2022-11-13T02:08:20.190Z,10.82
2022-11-13T02:11:24.287Z,11.13
2022-11-13T02:14:29.701Z,13.30
2022-11-13T02:17:45.686Z,10.88
2022-11-13T02:21:21.981Z,11.40
2022-11-13T02:24:33.358Z,12.23
2022-11-13T02:27:49.106Z,12.15
2022-11-13T02:30:53.243Z,12.38
2022-11-13T02:33:57.655Z,13.30
2022-11-13T02:37:01.880Z,10.82
2022-11-13T02:40:06.917Z,11.85
2022-11-13T02:43:11.284Z,12.05
2022-11-13T02:46:15.571Z,13.80
2022-11-13T02:49:19.884Z,14.25
2022-11-13T02:52:23.922Z,12.38
2022-11-13T02:55:28.030Z,10.68
2022-11-13T02:58:32.486Z,10.00
2022-11-13T03:01:36.724Z,9.43
2022-11-13T03:05:10.164Z,11.50
2022-11-13T03:08:06.486Z,9.55
2022-11-13T03:11:12.372Z,10.80
2022-11-13T03:14:16.572Z,12.25
2022-11-13T03:17:20.826Z,10.65
2022-11-13T03:20:25.300Z,10.10
2022-11-13T03:23:29.792Z,13.32
2022-11-13T03:26:34.448Z,14.85
2022-11-13T03:29:38.439Z,13.35
2022-11-13T03:32:42.740Z,14.85
2022-11-13T03:35:48.194Z,13.60
2022-11-13T03:38:52.468Z,12.60
2022-11-13T03:41:56.703Z,11.60
2022-11-13T03:45:00.907Z,13.32
2022-11-13T03:48:05.849Z,13.05
2022-11-13T03:51:10.042Z,10.60
2022-11-13T03:54:14.640Z,12.35
2022-11-13T03:57:19.441Z,12.23
2022-11-13T04:00:23.818Z,11.05
2022-11-13T04:03:28.044Z,11.40
2022-11-13T04:06:32.588Z,12.45
2022-11-13T04:09:36.579Z,13.27
2022-11-13T04:12:41.233Z,12.57
2022-11-13T04:15:45.274Z,12.77
2022-11-13T04:18:49.362Z,14.60
2022-11-13T04:21:54.412Z,11.43
2022-11-13T04:24:58.860Z,13.80
2022-11-13T04:28:03.255Z,13.10
2022-11-13T04:31:07.744Z,12.23
2022-11-13T04:34:11.960Z,13.05
2022-11-13T04:37:16.705Z,13.43
2022-11-13T04:40:21.107Z,12.95
2022-11-13T04:43:25.502Z,14.23
2022-11-13T04:46:29.872Z,11.80
2022-11-13T04:49:34.079Z,11.40
2022-11-13T04:52:38.460Z,10.98
2022-11-13T04:55:42.895Z,11.93
2022-11-13T04:58:47.369Z,11.80
2022-11-13T05:01:51.631Z,11.70
2022-11-13T05:04:59.263Z,12.23
2022-11-13T05:08:05.999Z,10.13
2022-11-13T05:11:10.312Z,10.70
2022-11-13T05:14:14.928Z,12.80
2022-11-13T05:17:18.994Z,12.02
2022-11-13T05:20:23.406Z,11.60
2022-11-13T05:23:27.695Z,11.52
2022-11-13T05:26:31.939Z,11.40
2022-11-13T05:29:36.038Z,10.40
2022-11-13T05:32:40.080Z,13.30
2022-11-13T05:35:45.616Z,11.63
2022-11-13T05:38:49.973Z,13.05
2022-11-13T05:41:54.274Z,11.50
2022-11-13T05:44:58.649Z,14.27
2022-11-13T05:48:03.139Z,11.85
2022-11-13T05:51:10.134Z,12.70
2022-11-13T05:54:14.516Z,12.95
2022-11-13T05:57:18.800Z,13.80
2022-11-13T06:00:23.070Z,12.75
2022-11-13T06:03:27.260Z,13.98
2022-11-13T06:06:32.676Z,12.30
2022-11-13T06:09:36.699Z,12.82
2022-11-13T06:12:41.067Z,13.90
2022-11-13T06:15:45.288Z,12.55
2022-11-13T06:18:50.410Z,12.98
2022-11-13T06:21:54.685Z,12.70
2022-11-13T06:24:59.047Z,11.05
2022-11-13T06:28:03.515Z,10.85
2022-11-13T06:31:11.818Z,10.52
2022-11-13T06:34:16.200Z,9.40
2022-11-13T06:37:20.256Z,8.57
2022-11-13T06:40:24.578Z,9.82
2022-11-13T06:43:29.384Z,9.02
2022-11-13T06:46:34.264Z,9.18
2022-11-13T06:49:38.492Z,10.13
2022-11-13T06:52:42.560Z,9.93
2022-11-13T06:55:49.090Z,11.20
2022-11-13T06:58:56.740Z,10.18
2022-11-13T07:02:00.868Z,10.00
2022-11-13T07:05:05.430Z,10.13
2022-11-13T07:08:09.855Z,10.57
2022-11-13T07:11:21.912Z,10.38
2022-11-13T07:14:26.436Z,11.02
2022-11-13T07:17:30.700Z,9.30
2022-11-13T07:20:35.194Z,9.48
2022-11-13T07:23:43.161Z,10.27
2022-11-13T07:26:47.444Z,10.68
2022-11-13T07:29:51.885Z,9.68
2022-11-13T07:32:56.217Z,10.05
2022-11-13T07:36:00.787Z,8.73
2022-11-13T07:39:05.055Z,9.25
2022-11-13T07:42:09.343Z,9.25
2022-11-13T07:45:13.575Z,9.80
2022-11-13T07:48:18.047Z,10.23
2022-11-13T07:51:22.477Z,8.85
2022-11-13T07:54:26.767Z,10.43
2022-11-13T07:57:31.048Z,10.57
2022-11-13T08:00:35.931Z,11.18
2022-11-13T08:03:40.316Z,9.10
2022-11-13T08:06:44.635Z,10.05
2022-11-13T08:09:48.638Z,10.20
2022-11-13T08:13:02.595Z,12.23
2022-11-13T08:16:07.582Z,12.38
2022-11-13T08:19:11.721Z,12.75
2022-11-13T08:22:16.091Z,12.63
2022-11-13T08:25:20.552Z,11.02
2022-11-13T08:28:24.991Z,11.40
2022-11-13T08:31:29.304Z,10.13
2022-11-13T08:34:34.168Z,10.50
2022-11-13T08:37:38.735Z,9.95
2022-11-13T08:40:43.011Z,9.05
2022-11-13T08:43:47.326Z,10.90
2022-11-13T08:46:51.581Z,11.27
2022-11-13T08:49:55.825Z,12.48
2022-11-13T08:53:00.942Z,10.95
2022-11-13T08:56:05.662Z,12.52
2022-11-13T08:59:10.948Z,11.35
2022-11-13T09:02:15.713Z,11.60
2022-11-13T09:05:20.246Z,12.32
2022-11-13T09:08:24.260Z,11.73
2022-11-13T09:11:28.708Z,12.88
2022-11-13T09:14:33.299Z,10.85
2022-11-13T09:17:37.704Z,10.20
2022-11-13T09:20:42.108Z,10.57
2022-11-13T09:23:46.222Z,9.68
2022-11-13T09:26:50.503Z,12.90
2022-11-13T09:29:55.800Z,10.88
2022-11-13T09:33:00.935Z,11.00
2022-11-13T09:36:15.655Z,9.65
2022-11-13T09:39:19.667Z,12.57
2022-11-13T09:42:28.382Z,10.85
2022-11-13T09:45:33.264Z,10.23
2022-11-13T09:48:41.583Z,9.93
2022-11-13T09:51:51.883Z,8.65
2022-11-13T09:54:56.129Z,8.57
2022-11-13T09:58:12.536Z,8.30
2022-11-13T10:01:26.331Z,8.27
2022-11-13T10:04:54.114Z,9.18
2022-11-13T10:08:04.492Z,8.75
2022-11-13T10:11:35.336Z,8.27
2022-11-13T10:14:45.877Z,7.68
2022-11-13T10:17:55.314Z,7.70
2022-11-13T10:21:15.526Z,7.78
2022-11-13T10:24:28.301Z,8.63
2022-11-13T10:27:32.748Z,7.45
2022-11-13T10:30:36.767Z,7.65
2022-11-13T10:33:41.344Z,6.05
2022-11-13T10:37:10.536Z,5.13
2022-11-13T10:40:33.195Z,6.85
2022-11-13T10:44:02.816Z,6.10
2022-11-13T10:47:36.002Z,7.35
2022-11-13T10:53:44.788Z,7.13
2022-11-13T10:57:05.708Z,6.55
2022-11-13T11:00:32.016Z,6.80
2022-11-13T11:03:36.056Z,6.65
2022-11-13T11:07:17.808Z,6.63
2022-11-13T11:10:32.846Z,7.15
2022-11-13T11:13:37.141Z,5.75
2022-11-13T11:16:42.262Z,6.40
2022-11-13T11:20:00.716Z,8.55
2022-11-13T11:23:49.475Z,7.85
2022-11-13T11:27:06.842Z,8.57
2022-11-13T11:30:28.896Z,9.60
2022-11-13T11:33:37.184Z,7.30
2022-11-13T11:36:55.568Z,7.85
2022-11-13T11:40:07.943Z,8.77
2022-11-13T11:43:27.662Z,7.72
2022-11-13T11:46:31.806Z,6.90
2022-11-13T11:49:36.100Z,7.32
2022-11-13T11:53:04.295Z,6.95
2022-11-13T11:56:16.323Z,7.45
2022-11-13T11:59:57.426Z,7.95
2022-11-13T12:03:22.469Z,7.38
2022-11-13T12:07:09.006Z,7.15
2022-11-13T12:10:28.568Z,8.32
2022-11-13T12:13:45.382Z,7.50
2022-11-13T12:17:21.839Z,8.43
2022-11-13T12:20:43.565Z,9.00
2022-11-13T12:24:05.789Z,7.05
2022-11-13T12:27:27.244Z,8.93
2022-11-13T12:31:00.018Z,7.70
2022-11-13T12:34:31.333Z,7.72
2022-11-13T12:37:51.137Z,6.65
2022-11-13T12:41:23.366Z,6.25
2022-11-13T12:44:29.639Z,7.15
2022-11-13T12:47:35.684Z,6.85
2022-11-13T12:50:40.528Z,7.32
2022-11-13T12:53:48.665Z,9.27
2022-11-13T12:56:53.307Z,7.45
2022-11-13T13:00:00.568Z,8.60
2022-11-13T13:03:53.964Z,7.32
2022-11-13T13:07:22.667Z,8.98
2022-11-13T13:10:29.193Z,8.18
2022-11-13T13:13:58.224Z,8.65
2022-11-13T13:17:14.488Z,8.30
2022-11-13T13:20:18.848Z,8.40
2022-11-13T13:23:32.733Z,8.00
2022-11-13T13:26:45.237Z,7.22
2022-11-13T13:29:49.297Z,10.05
2022-11-13T13:33:05.294Z,7.63
2022-11-13T13:36:40.319Z,8.65
2022-11-13T13:40:16.483Z,7.05
2022-11-13T13:43:36.731Z,7.88
2022-11-13T13:46:41.752Z,7.47
2022-11-13T13:49:46.191Z,6.85
2022-11-13T13:52:55.826Z,6.88
2022-11-13T13:56:03.547Z,6.88
2022-11-13T13:59:18.599Z,6.35
2022-11-13T14:02:24.137Z,6.03
2022-11-13T14:05:31.626Z,6.93
2022-11-13T14:08:35.973Z,6.10
2022-11-13T14:11:40.513Z,6.13
2022-11-13T14:14:45.028Z,5.90
2022-11-13T14:17:50.539Z,6.05
2022-11-13T14:20:57.231Z,6.35
2022-11-13T14:24:03.461Z,7.30
2022-11-13T14:27:09.461Z,8.05
2022-11-13T14:30:23.001Z,10.15
2022-11-13T14:33:32.717Z,8.40
2022-11-13T14:36:38.161Z,8.93
2022-11-13T14:39:46.444Z,7.72
2022-11-13T14:42:57.598Z,9.50
2022-11-13T14:46:04.585Z,7.72
2022-11-13T14:49:15.531Z,8.40
2022-11-13T14:52:21.971Z,7.43
2022-11-13T14:55:29.545Z,8.85
2022-11-13T14:58:36.345Z,7.20
2022-11-13T15:01:40.450Z,7.10
2022-11-13T15:04:44.705Z,9.90
2022-11-13T15:07:49.716Z,7.97
2022-11-13T15:10:55.715Z,8.23
2022-11-13T15:14:04.158Z,7.55
2022-11-13T15:17:15.085Z,8.40
2022-11-13T15:20:24.383Z,8.43
2022-11-13T15:23:29.256Z,6.78
2022-11-13T15:26:33.906Z,7.93
2022-11-13T15:29:38.097Z,6.88
2022-11-13T15:32:42.645Z,7.78
2022-11-13T15:35:47.226Z,6.93
2022-11-13T15:38:51.326Z,7.15
2022-11-13T15:41:55.660Z,7.28
2022-11-13T15:44:59.802Z,7.35
2022-11-13T15:48:04.226Z,6.65
2022-11-13T15:51:22.508Z,7.00
2022-11-13T15:54:31.509Z,6.65
2022-11-13T15:57:37.678Z,8.18
2022-11-13T16:00:43.012Z,6.70
2022-11-13T16:03:47.519Z,7.22
2022-11-13T16:06:51.576Z,8.00
2022-11-13T16:09:55.819Z,8.25
2022-11-13T16:13:00.272Z,7.13
2022-11-13T16:16:04.956Z,7.35
2022-11-13T16:19:13.223Z,7.30
2022-11-13T16:22:25.987Z,9.77
2022-11-13T16:25:30.100Z,7.32
2022-11-13T16:28:52.735Z,8.70
2022-11-13T16:31:58.431Z,7.97
2022-11-13T16:35:02.839Z,7.05
2022-11-13T16:38:12.944Z,10.40
2022-11-13T16:41:17.315Z,8.52
2022-11-13T16:44:21.219Z,8.52
2022-11-13T16:47:26.263Z,10.65
2022-11-13T16:50:32.913Z,11.15
2022-11-13T16:53:37.392Z,10.95
2022-11-13T16:56:41.996Z,9.98
2022-11-13T16:59:46.222Z,7.75
2022-11-13T17:02:52.492Z,8.75
2022-11-13T17:05:56.921Z,11.02
2022-11-13T17:09:03.282Z,13.73
2022-11-13T17:12:07.899Z,11.85
2022-11-13T17:15:12.044Z,11.57
2022-11-13T17:18:16.440Z,10.75
2022-11-13T17:21:22.357Z,11.38
2022-11-13T17:24:26.422Z,11.25
2022-11-13T17:27:30.844Z,9.77
2022-11-13T17:30:35.289Z,9.80
2022-11-13T17:33:40.218Z,10.27
2022-11-13T17:36:44.511Z,13.35
2022-11-13T17:39:48.617Z,11.15
2022-11-13T17:42:53.201Z,11.98
2022-11-13T17:45:57.559Z,11.70
2022-11-13T17:49:02.123Z,11.88
2022-11-13T17:52:06.277Z,12.45
2022-11-13T17:55:12.989Z,11.95
2022-11-13T17:58:17.364Z,12.80
2022-11-13T18:01:22.647Z,11.55
2022-11-13T18:04:27.150Z,12.80
2022-11-13T18:07:31.769Z,12.80
2022-11-13T18:10:38.242Z,13.48
2022-11-13T18:13:43.509Z,11.77
2022-11-13T18:16:47.204Z,16.20
2022-11-13T18:19:54.811Z,14.43
2022-11-13T18:23:02.729Z,12.55
2022-11-13T18:26:09.299Z,13.52
2022-11-13T18:29:13.522Z,12.23
2022-11-13T18:32:17.676Z,11.30
2022-11-13T18:35:21.942Z,10.27
2022-11-13T18:38:26.573Z,15.85
2022-11-13T18:41:32.589Z,12.90
2022-11-13T18:44:36.812Z,14.10
2022-11-13T18:47:41.063Z,12.82
2022-11-13T18:50:55.749Z,11.82
2022-11-13T18:54:00.996Z,12.57
2022-11-13T18:57:06.746Z,11.77
2022-11-13T19:00:11.510Z,12.32
2022-11-13T19:03:16.018Z,10.68
2022-11-13T19:06:22.564Z,10.77
2022-11-13T19:09:26.816Z,11.80
2022-11-13T19:12:31.494Z,9.70
2022-11-13T19:15:37.848Z,11.40
2022-11-13T19:18:44.002Z,9.88
2022-11-13T19:21:49.077Z,10.20
2022-11-13T19:24:53.520Z,10.52
2022-11-13T19:27:57.480Z,11.13
2022-11-13T19:31:09.007Z,9.65
2022-11-13T19:34:13.380Z,10.02
2022-11-13T19:37:19.271Z,10.68
2022-11-13T19:40:23.703Z,10.57
2022-11-13T19:43:27.909Z,12.45
2022-11-13T19:46:33.929Z,13.50
2022-11-13T19:49:39.808Z,12.77
2022-11-13T19:52:43.863Z,13.63
2022-11-13T19:55:55.380Z,14.27
2022-11-13T19:58:59.624Z,11.88
2022-11-13T20:02:04.157Z,11.13
2022-11-13T20:05:08.643Z,11.00
2022-11-13T20:08:13.697Z,11.15
2022-11-13T20:11:18.295Z,10.40
2022-11-13T20:14:22.617Z,10.68
2022-11-13T20:17:26.875Z,9.48
2022-11-13T20:20:32.107Z,8.85
2022-11-13T20:23:36.539Z,11.43
2022-11-13T20:26:40.567Z,10.18
2022-11-13T20:29:45.059Z,10.93
2022-11-13T20:32:49.480Z,11.27
2022-11-13T20:35:54.836Z,12.10
2022-11-13T20:38:59.227Z,10.93
2022-11-13T20:42:03.162Z,12.27
2022-11-13T20:45:07.909Z,12.13
2022-11-13T20:48:12.020Z,11.23
2022-11-13T20:51:20.878Z,11.73
2022-11-13T20:54:25.288Z,11.00
2022-11-13T20:57:29.341Z,11.32
2022-11-13T21:00:33.547Z,11.07
2022-11-13T21:03:41.301Z,11.35
2022-11-13T21:06:47.166Z,10.95
2022-11-13T21:09:51.750Z,10.85
2022-11-13T21:12:56.098Z,11.98
2022-11-13T21:16:05.962Z,11.45
2022-11-13T21:19:10.088Z,11.27
2022-11-13T21:22:14.486Z,10.93
2022-11-13T21:25:19.674Z,9.85
2022-11-13T21:28:27.143Z,10.35
2022-11-13T21:31:35.143Z,9.95
2022-11-13T21:34:39.332Z,10.93
2022-11-13T21:37:44.020Z,11.68
2022-11-13T21:41:08.164Z,12.35
2022-11-13T21:44:12.309Z,11.50
2022-11-13T21:47:16.766Z,13.73
2022-11-13T21:50:20.949Z,12.07
2022-11-13T21:53:25.388Z,12.25
2022-11-13T21:56:30.521Z,12.77
2022-11-13T21:59:34.954Z,12.63
2022-11-13T22:02:39.464Z,12.20
2022-11-13T22:05:43.663Z,10.57
2022-11-13T22:08:55.923Z,11.75
2022-11-13T22:12:00.379Z,11.55
2022-11-13T22:15:04.983Z,12.65
2022-11-13T22:18:09.203Z,14.57
2022-11-13T22:21:15.406Z,12.02
2022-11-13T22:24:19.789Z,11.45
2022-11-13T22:27:24.111Z,13.98
2022-11-13T22:30:28.264Z,12.13
2022-11-13T22:33:34.843Z,11.85
2022-11-13T22:36:39.196Z,11.45
2022-11-13T22:39:43.445Z,12.75
2022-11-13T22:42:47.951Z,13.82
2022-11-13T22:45:52.736Z,12.40
2022-11-13T22:48:58.613Z,13.05
2022-11-13T22:52:02.787Z,13.60
2022-11-13T22:55:07.449Z,11.60
2022-11-13T22:58:11.635Z,12.68
2022-11-13T23:01:17.195Z,11.35
2022-11-13T23:04:21.268Z,13.88
2022-11-13T23:07:25.647Z,12.02
2022-11-13T23:10:29.944Z,11.18
2022-11-13T23:13:34.632Z,12.63
2022-11-13T23:16:38.963Z,11.98
2022-11-13T23:19:43.379Z,12.18
2022-11-13T23:22:47.666Z,12.65
2022-11-13T23:25:52.199Z,11.35
2022-11-13T23:28:56.661Z,11.38
2022-11-13T23:32:01.019Z,11.52
2022-11-13T23:35:05.781Z,10.85
2022-11-13T23:38:09.846Z,11.75
2022-11-13T23:41:14.163Z,13.38
2022-11-13T23:44:19.085Z,12.10
2022-11-13T23:47:23.427Z,10.68
2022-11-13T23:50:27.908Z,12.45
2022-11-13T23:53:32.278Z,12.93
2022-11-13T23:56:36.563Z,11.38
2022-11-13T23:59:40.740Z,14.55
